sensor_id;sensor_type;location;lat;lon;timestamp;temperature;humidity
25937;DHT22;13733;51.178;4.450;2023-06-19T00:02:21;20.50;99.90
25937;DHT22;13733;51.178;4.450;2023-06-19T00:04:47;20.50;99.90
25937;DHT22;13733;51.178;4.450;2023-06-19T00:07:13;20.60;99.90
25937;DHT22;13733;51.178;4.450;2023-06-19T00:09:38;20.70;99.90
25937;DHT22;13733;51.178;4.450;2023-06-19T00:12:04;20.70;99.90
25937;DHT22;13733;51.178;4.450;2023-06-19T00:14:30;20.80;99.90
25937;DHT22;13733;51.178;4.450;2023-06-19T00:16:56;20.70;99.90
25937;DHT22;13733;51.178;4.450;2023-06-19T00:19:22;20.80;99.90
25937;DHT22;13733;51.178;4.450;2023-06-19T00:21:48;20.80;99.90
25937;DHT22;13733;51.178;4.450;2023-06-19T00:24:14;20.80;99.90
25937;DHT22;13733;51.178;4.450;2023-06-19T00:26:39;20.70;99.90
25937;DHT22;13733;51.178;4.450;2023-06-19T00:29:05;20.70;99.90
25937;DHT22;13733;51.178;4.450;2023-06-19T00:31:32;20.60;99.90
25937;DHT22;13733;51.178;4.450;2023-06-19T00:33:58;20.70;99.90
25937;DHT22;13733;51.178;4.450;2023-06-19T00:36:24;20.70;99.90
25937;DHT22;13733;51.178;4.450;2023-06-19T00:38:52;20.70;99.90
25937;DHT22;13733;51.178;4.450;2023-06-19T00:41:18;20.60;99.90
25937;DHT22;13733;51.178;4.450;2023-06-19T00:43:44;20.50;99.90
25937;DHT22;13733;51.178;4.450;2023-06-19T00:46:10;20.60;99.90
25937;DHT22;13733;51.178;4.450;2023-06-19T00:48:36;20.50;99.90
25937;DHT22;13733;51.178;4.450;2023-06-19T00:51:02;20.50;99.90
25937;DHT22;13733;51.178;4.450;2023-06-19T00:53:28;20.50;99.90
25937;DHT22;13733;51.178;4.450;2023-06-19T00:55:56;20.50;99.90
25937;DHT22;13733;51.178;4.450;2023-06-19T00:58:23;20.50;99.90
25937;DHT22;13733;51.178;4.450;2023-06-19T01:00:50;20.40;99.90
25937;DHT22;13733;51.178;4.450;2023-06-19T01:03:16;20.40;99.90
25937;DHT22;13733;51.178;4.450;2023-06-19T01:05:43;20.50;99.90
25937;DHT22;13733;51.178;4.450;2023-06-19T01:10:53;20.60;99.90
25937;DHT22;13733;51.178;4.450;2023-06-19T01:13:22;20.70;99.90
25937;DHT22;13733;51.178;4.450;2023-06-19T01:15:50;20.90;99.90
25937;DHT22;13733;51.178;4.450;2023-06-19T01:18:17;20.80;99.90
25937;DHT22;13733;51.178;4.450;2023-06-19T01:20:43;20.70;99.90
25937;DHT22;13733;51.178;4.450;2023-06-19T01:23:10;20.70;99.90
25937;DHT22;13733;51.178;4.450;2023-06-19T01:25:36;20.70;99.90
25937;DHT22;13733;51.178;4.450;2023-06-19T01:28:07;20.60;99.90
25937;DHT22;13733;51.178;4.450;2023-06-19T01:30:38;20.70;99.90
25937;DHT22;13733;51.178;4.450;2023-06-19T01:33:09;20.60;99.90
25937;DHT22;13733;51.178;4.450;2023-06-19T01:35:40;20.60;99.90
25937;DHT22;13733;51.178;4.450;2023-06-19T01:38:07;20.70;99.90
25937;DHT22;13733;51.178;4.450;2023-06-19T01:40:34;20.80;99.90
25937;DHT22;13733;51.178;4.450;2023-06-19T01:43:01;20.70;99.90
25937;DHT22;13733;51.178;4.450;2023-06-19T01:45:29;20.70;99.90
25937;DHT22;13733;51.178;4.450;2023-06-19T01:47:55;20.80;99.90
25937;DHT22;13733;51.178;4.450;2023-06-19T01:50:22;20.60;99.90
25937;DHT22;13733;51.178;4.450;2023-06-19T01:52:49;20.50;99.90
25937;DHT22;13733;51.178;4.450;2023-06-19T01:55:14;20.50;99.90
25937;DHT22;13733;51.178;4.450;2023-06-19T01:57:41;20.50;99.90
25937;DHT22;13733;51.178;4.450;2023-06-19T02:00:08;20.50;99.90
25937;DHT22;13733;51.178;4.450;2023-06-19T02:02:39;20.50;99.90
25937;DHT22;13733;51.178;4.450;2023-06-19T02:05:05;20.70;99.90
25937;DHT22;13733;51.178;4.450;2023-06-19T02:07:31;20.90;99.90
25937;DHT22;13733;51.178;4.450;2023-06-19T02:09:57;20.90;99.90
25937;DHT22;13733;51.178;4.450;2023-06-19T02:12:23;20.80;99.90
25937;DHT22;13733;51.178;4.450;2023-06-19T02:14:49;20.70;99.90
25937;DHT22;13733;51.178;4.450;2023-06-19T02:17:14;20.80;99.90
25937;DHT22;13733;51.178;4.450;2023-06-19T02:19:40;20.80;99.90
25937;DHT22;13733;51.178;4.450;2023-06-19T02:22:06;20.90;99.90
25937;DHT22;13733;51.178;4.450;2023-06-19T02:24:32;20.90;99.90
25937;DHT22;13733;51.178;4.450;2023-06-19T02:26:58;20.70;99.90
25937;DHT22;13733;51.178;4.450;2023-06-19T02:29:25;20.50;99.90
25937;DHT22;13733;51.178;4.450;2023-06-19T02:31:50;20.60;99.90
25937;DHT22;13733;51.178;4.450;2023-06-19T02:34:16;20.50;99.90
25937;DHT22;13733;51.178;4.450;2023-06-19T02:36:42;20.60;99.90
25937;DHT22;13733;51.178;4.450;2023-06-19T02:39:09;20.50;99.90
25937;DHT22;13733;51.178;4.450;2023-06-19T02:41:34;20.60;99.90
25937;DHT22;13733;51.178;4.450;2023-06-19T02:44:03;20.60;99.90
25937;DHT22;13733;51.178;4.450;2023-06-19T02:46:28;20.70;99.90
25937;DHT22;13733;51.178;4.450;2023-06-19T02:48:54;20.70;99.90
25937;DHT22;13733;51.178;4.450;2023-06-19T02:51:21;20.80;99.90
25937;DHT22;13733;51.178;4.450;2023-06-19T02:53:47;20.60;99.90
25937;DHT22;13733;51.178;4.450;2023-06-19T02:56:13;20.40;99.90
25937;DHT22;13733;51.178;4.450;2023-06-19T02:58:38;20.40;99.90
25937;DHT22;13733;51.178;4.450;2023-06-19T03:01:05;20.30;99.90
25937;DHT22;13733;51.178;4.450;2023-06-19T03:03:34;20.30;99.90
25937;DHT22;13733;51.178;4.450;2023-06-19T03:06:06;20.30;99.90
25937;DHT22;13733;51.178;4.450;2023-06-19T03:08:36;20.30;99.90
25937;DHT22;13733;51.178;4.450;2023-06-19T03:11:02;20.30;99.90
25937;DHT22;13733;51.178;4.450;2023-06-19T03:13:52;20.40;99.90
25937;DHT22;13733;51.178;4.450;2023-06-19T03:16:20;20.50;99.90
25937;DHT22;13733;51.178;4.450;2023-06-19T03:18:47;20.60;99.90
25937;DHT22;13733;51.178;4.450;2023-06-19T03:21:15;20.50;99.90
25937;DHT22;13733;51.178;4.450;2023-06-19T03:23:44;20.60;99.90
25937;DHT22;13733;51.178;4.450;2023-06-19T03:26:10;20.50;99.90
25937;DHT22;13733;51.178;4.450;2023-06-19T03:28:38;20.50;99.90
25937;DHT22;13733;51.178;4.450;2023-06-19T03:31:06;20.70;99.90
25937;DHT22;13733;51.178;4.450;2023-06-19T03:33:32;20.80;99.90
25937;DHT22;13733;51.178;4.450;2023-06-19T03:35:58;20.60;99.90
25937;DHT22;13733;51.178;4.450;2023-06-19T03:38:34;20.60;99.90
25937;DHT22;13733;51.178;4.450;2023-06-19T03:41:01;20.70;99.90
25937;DHT22;13733;51.178;4.450;2023-06-19T03:43:27;20.70;99.90
25937;DHT22;13733;51.178;4.450;2023-06-19T03:45:53;20.70;99.90
25937;DHT22;13733;51.178;4.450;2023-06-19T03:48:19;20.70;99.90
25937;DHT22;13733;51.178;4.450;2023-06-19T03:50:45;20.50;99.90
25937;DHT22;13733;51.178;4.450;2023-06-19T03:53:11;20.30;99.90
25937;DHT22;13733;51.178;4.450;2023-06-19T03:55:36;20.20;99.90
25937;DHT22;13733;51.178;4.450;2023-06-19T03:58:02;20.10;99.90
25937;DHT22;13733;51.178;4.450;2023-06-19T04:00:28;19.90;99.90
25937;DHT22;13733;51.178;4.450;2023-06-19T04:02:53;19.80;99.90
25937;DHT22;13733;51.178;4.450;2023-06-19T04:05:19;19.90;99.90
25937;DHT22;13733;51.178;4.450;2023-06-19T04:07:45;19.90;99.90
25937;DHT22;13733;51.178;4.450;2023-06-19T04:10:14;20.00;99.90
25937;DHT22;13733;51.178;4.450;2023-06-19T04:12:40;20.10;99.90
25937;DHT22;13733;51.178;4.450;2023-06-19T04:15:07;20.20;99.90
25937;DHT22;13733;51.178;4.450;2023-06-19T04:17:33;20.20;99.90
25937;DHT22;13733;51.178;4.450;2023-06-19T04:19:58;20.30;99.90
25937;DHT22;13733;51.178;4.450;2023-06-19T04:22:24;20.10;99.90
25937;DHT22;13733;51.178;4.450;2023-06-19T04:24:50;20.10;99.90
25937;DHT22;13733;51.178;4.450;2023-06-19T04:27:16;20.00;99.90
25937;DHT22;13733;51.178;4.450;2023-06-19T04:29:42;20.00;99.90
25937;DHT22;13733;51.178;4.450;2023-06-19T04:32:08;20.10;99.90
25937;DHT22;13733;51.178;4.450;2023-06-19T04:34:41;19.90;99.90
25937;DHT22;13733;51.178;4.450;2023-06-19T04:37:11;20.00;99.90
25937;DHT22;13733;51.178;4.450;2023-06-19T04:39:37;19.80;99.90
25937;DHT22;13733;51.178;4.450;2023-06-19T04:42:03;19.70;99.90
25937;DHT22;13733;51.178;4.450;2023-06-19T04:44:29;19.50;99.90
25937;DHT22;13733;51.178;4.450;2023-06-19T04:46:59;19.50;99.90
25937;DHT22;13733;51.178;4.450;2023-06-19T04:49:31;19.60;99.90
25937;DHT22;13733;51.178;4.450;2023-06-19T04:51:57;19.60;99.90
25937;DHT22;13733;51.178;4.450;2023-06-19T04:54:24;19.50;99.90
25937;DHT22;13733;51.178;4.450;2023-06-19T04:56:49;19.50;99.90
25937;DHT22;13733;51.178;4.450;2023-06-19T04:59:15;19.50;99.90
25937;DHT22;13733;51.178;4.450;2023-06-19T05:01:44;19.40;99.90
25937;DHT22;13733;51.178;4.450;2023-06-19T05:04:10;19.60;99.90
25937;DHT22;13733;51.178;4.450;2023-06-19T05:06:39;19.60;99.90
25937;DHT22;13733;51.178;4.450;2023-06-19T05:09:05;19.60;99.90
25937;DHT22;13733;51.178;4.450;2023-06-19T05:11:31;19.60;99.90
25937;DHT22;13733;51.178;4.450;2023-06-19T05:13:57;19.60;99.90
25937;DHT22;13733;51.178;4.450;2023-06-19T05:16:23;19.50;99.90
25937;DHT22;13733;51.178;4.450;2023-06-19T05:18:49;19.60;99.90
25937;DHT22;13733;51.178;4.450;2023-06-19T05:21:17;19.60;99.90
25937;DHT22;13733;51.178;4.450;2023-06-19T05:23:43;19.60;99.90
25937;DHT22;13733;51.178;4.450;2023-06-19T05:26:09;19.60;99.90
25937;DHT22;13733;51.178;4.450;2023-06-19T05:28:35;19.80;99.90
25937;DHT22;13733;51.178;4.450;2023-06-19T05:31:01;19.80;99.90
25937;DHT22;13733;51.178;4.450;2023-06-19T05:33:27;19.80;99.90
25937;DHT22;13733;51.178;4.450;2023-06-19T05:35:53;19.80;99.90
25937;DHT22;13733;51.178;4.450;2023-06-19T05:38:20;19.90;99.90
25937;DHT22;13733;51.178;4.450;2023-06-19T05:40:46;19.80;99.90
25937;DHT22;13733;51.178;4.450;2023-06-19T05:43:12;19.80;99.90
25937;DHT22;13733;51.178;4.450;2023-06-19T05:45:38;19.80;99.90
25937;DHT22;13733;51.178;4.450;2023-06-19T05:48:04;19.70;99.90
25937;DHT22;13733;51.178;4.450;2023-06-19T05:50:30;19.60;99.90
25937;DHT22;13733;51.178;4.450;2023-06-19T05:52:56;19.70;99.90
25937;DHT22;13733;51.178;4.450;2023-06-19T05:55:22;19.70;99.90
25937;DHT22;13733;51.178;4.450;2023-06-19T05:57:50;19.70;99.90
25937;DHT22;13733;51.178;4.450;2023-06-19T06:00:16;19.50;99.90
25937;DHT22;13733;51.178;4.450;2023-06-19T06:02:42;19.50;99.90
25937;DHT22;13733;51.178;4.450;2023-06-19T06:05:09;19.50;99.90
25937;DHT22;13733;51.178;4.450;2023-06-19T06:07:35;19.50;99.90
25937;DHT22;13733;51.178;4.450;2023-06-19T06:10:02;19.50;99.90
25937;DHT22;13733;51.178;4.450;2023-06-19T06:12:27;19.60;99.90
25937;DHT22;13733;51.178;4.450;2023-06-19T06:14:53;19.70;99.90
25937;DHT22;13733;51.178;4.450;2023-06-19T06:17:19;19.90;99.90
25937;DHT22;13733;51.178;4.450;2023-06-19T06:19:45;19.90;99.90
25937;DHT22;13733;51.178;4.450;2023-06-19T06:22:10;20.00;99.90
25937;DHT22;13733;51.178;4.450;2023-06-19T06:24:36;19.90;99.90
25937;DHT22;13733;51.178;4.450;2023-06-19T06:27:02;19.90;99.90
25937;DHT22;13733;51.178;4.450;2023-06-19T06:29:28;20.00;99.90
25937;DHT22;13733;51.178;4.450;2023-06-19T06:32:03;20.00;99.90
25937;DHT22;13733;51.178;4.450;2023-06-19T06:34:29;20.00;99.90
25937;DHT22;13733;51.178;4.450;2023-06-19T06:36:55;19.90;99.90
25937;DHT22;13733;51.178;4.450;2023-06-19T06:39:20;19.90;99.90
25937;DHT22;13733;51.178;4.450;2023-06-19T06:41:46;20.00;99.90
25937;DHT22;13733;51.178;4.450;2023-06-19T06:44:12;20.00;99.90
25937;DHT22;13733;51.178;4.450;2023-06-19T06:46:37;19.90;99.90
25937;DHT22;13733;51.178;4.450;2023-06-19T06:49:03;20.20;99.90
25937;DHT22;13733;51.178;4.450;2023-06-19T06:51:29;20.20;99.90
25937;DHT22;13733;51.178;4.450;2023-06-19T06:53:54;20.10;99.90
25937;DHT22;13733;51.178;4.450;2023-06-19T06:56:20;20.00;99.90
25937;DHT22;13733;51.178;4.450;2023-06-19T06:58:46;20.10;99.90
25937;DHT22;13733;51.178;4.450;2023-06-19T07:01:12;20.20;99.90
25937;DHT22;13733;51.178;4.450;2023-06-19T07:03:38;20.30;99.90
25937;DHT22;13733;51.178;4.450;2023-06-19T07:06:05;20.50;99.90
25937;DHT22;13733;51.178;4.450;2023-06-19T07:08:30;20.30;99.90
25937;DHT22;13733;51.178;4.450;2023-06-19T07:10:56;20.30;99.90
25937;DHT22;13733;51.178;4.450;2023-06-19T07:13:22;20.30;99.90
25937;DHT22;13733;51.178;4.450;2023-06-19T07:15:48;20.40;99.90
25937;DHT22;13733;51.178;4.450;2023-06-19T07:18:14;20.60;99.90
25937;DHT22;13733;51.178;4.450;2023-06-19T07:20:39;20.50;99.90
25937;DHT22;13733;51.178;4.450;2023-06-19T07:23:05;20.70;99.90
25937;DHT22;13733;51.178;4.450;2023-06-19T07:25:31;20.30;99.90
25937;DHT22;13733;51.178;4.450;2023-06-19T07:27:59;20.50;99.90
25937;DHT22;13733;51.178;4.450;2023-06-19T07:30:26;20.80;99.90
25937;DHT22;13733;51.178;4.450;2023-06-19T07:32:52;20.80;99.90
25937;DHT22;13733;51.178;4.450;2023-06-19T07:35:17;20.80;99.90
25937;DHT22;13733;51.178;4.450;2023-06-19T07:37:44;21.00;99.90
25937;DHT22;13733;51.178;4.450;2023-06-19T07:40:11;21.00;99.90
25937;DHT22;13733;51.178;4.450;2023-06-19T07:42:37;21.30;99.90
25937;DHT22;13733;51.178;4.450;2023-06-19T07:45:03;21.50;99.90
25937;DHT22;13733;51.178;4.450;2023-06-19T07:47:29;21.40;99.90
25937;DHT22;13733;51.178;4.450;2023-06-19T07:49:54;21.40;99.90
25937;DHT22;13733;51.178;4.450;2023-06-19T07:52:20;21.60;99.90
25937;DHT22;13733;51.178;4.450;2023-06-19T07:54:54;21.70;99.90
25937;DHT22;13733;51.178;4.450;2023-06-19T07:57:20;21.90;99.90
25937;DHT22;13733;51.178;4.450;2023-06-19T07:59:48;21.80;99.90
25937;DHT22;13733;51.178;4.450;2023-06-19T08:02:14;21.90;99.90
25937;DHT22;13733;51.178;4.450;2023-06-19T08:04:39;22.20;99.90
25937;DHT22;13733;51.178;4.450;2023-06-19T08:07:05;22.40;99.90
25937;DHT22;13733;51.178;4.450;2023-06-19T08:09:31;22.40;99.90
25937;DHT22;13733;51.178;4.450;2023-06-19T08:11:57;22.10;99.90
25937;DHT22;13733;51.178;4.450;2023-06-19T08:14:23;22.00;99.90
25937;DHT22;13733;51.178;4.450;2023-06-19T08:16:49;22.00;99.90
25937;DHT22;13733;51.178;4.450;2023-06-19T08:19:14;22.00;99.90
25937;DHT22;13733;51.178;4.450;2023-06-19T08:21:40;22.00;99.90
25937;DHT22;13733;51.178;4.450;2023-06-19T08:24:06;22.20;99.90
25937;DHT22;13733;51.178;4.450;2023-06-19T08:26:32;22.30;99.90
25937;DHT22;13733;51.178;4.450;2023-06-19T08:28:58;22.20;99.90
25937;DHT22;13733;51.178;4.450;2023-06-19T08:31:23;22.10;99.90
25937;DHT22;13733;51.178;4.450;2023-06-19T08:33:56;22.10;99.90
25937;DHT22;13733;51.178;4.450;2023-06-19T08:36:23;22.10;99.90
25937;DHT22;13733;51.178;4.450;2023-06-19T08:38:49;22.50;99.90
25937;DHT22;13733;51.178;4.450;2023-06-19T08:41:17;22.70;99.90
25937;DHT22;13733;51.178;4.450;2023-06-19T08:43:45;23.20;99.90
25937;DHT22;13733;51.178;4.450;2023-06-19T08:46:14;23.40;99.90
25937;DHT22;13733;51.178;4.450;2023-06-19T08:48:40;23.60;99.90
25937;DHT22;13733;51.178;4.450;2023-06-19T08:51:07;23.80;99.90
25937;DHT22;13733;51.178;4.450;2023-06-19T08:53:34;23.90;99.90
25937;DHT22;13733;51.178;4.450;2023-06-19T08:56:04;24.10;99.90
25937;DHT22;13733;51.178;4.450;2023-06-19T08:58:30;23.90;99.90
25937;DHT22;13733;51.178;4.450;2023-06-19T09:00:58;23.80;99.90
25937;DHT22;13733;51.178;4.450;2023-06-19T09:03:25;23.70;99.90
25937;DHT22;13733;51.178;4.450;2023-06-19T09:05:50;23.50;99.90
25937;DHT22;13733;51.178;4.450;2023-06-19T09:08:17;23.50;99.90
25937;DHT22;13733;51.178;4.450;2023-06-19T09:11:04;23.70;99.90
25937;DHT22;13733;51.178;4.450;2023-06-19T09:13:31;23.70;99.90
25937;DHT22;13733;51.178;4.450;2023-06-19T09:16:04;23.90;99.90
25937;DHT22;13733;51.178;4.450;2023-06-19T09:18:31;23.70;99.90
25937;DHT22;13733;51.178;4.450;2023-06-19T09:20:57;23.70;99.90
25937;DHT22;13733;51.178;4.450;2023-06-19T09:23:24;23.90;99.90
25937;DHT22;13733;51.178;4.450;2023-06-19T09:25:54;23.80;99.90
25937;DHT22;13733;51.178;4.450;2023-06-19T09:28:24;24.00;99.90
25937;DHT22;13733;51.178;4.450;2023-06-19T09:31:00;24.20;99.90
25937;DHT22;13733;51.178;4.450;2023-06-19T09:33:34;23.70;99.90
25937;DHT22;13733;51.178;4.450;2023-06-19T09:36:02;23.60;99.90
25937;DHT22;13733;51.178;4.450;2023-06-19T09:38:38;23.90;99.90
25937;DHT22;13733;51.178;4.450;2023-06-19T09:41:08;24.50;99.90
25937;DHT22;13733;51.178;4.450;2023-06-19T09:43:36;24.70;99.90
25937;DHT22;13733;51.178;4.450;2023-06-19T09:46:04;24.90;99.90
25937;DHT22;13733;51.178;4.450;2023-06-19T09:48:31;25.10;99.90
25937;DHT22;13733;51.178;4.450;2023-06-19T09:51:25;25.30;99.90
25937;DHT22;13733;51.178;4.450;2023-06-19T09:53:56;25.40;99.90
25937;DHT22;13733;51.178;4.450;2023-06-19T09:56:24;25.60;99.90
25937;DHT22;13733;51.178;4.450;2023-06-19T09:58:54;25.50;99.90
25937;DHT22;13733;51.178;4.450;2023-06-19T10:01:22;25.70;99.90
25937;DHT22;13733;51.178;4.450;2023-06-19T10:03:49;25.70;99.90
25937;DHT22;13733;51.178;4.450;2023-06-19T10:06:16;25.70;99.90
25937;DHT22;13733;51.178;4.450;2023-06-19T10:08:43;25.80;99.90
25937;DHT22;13733;51.178;4.450;2023-06-19T10:11:10;25.80;99.90
25937;DHT22;13733;51.178;4.450;2023-06-19T10:13:38;25.90;99.90
25937;DHT22;13733;51.178;4.450;2023-06-19T10:16:05;26.10;99.90
25937;DHT22;13733;51.178;4.450;2023-06-19T10:18:45;25.80;99.90
25937;DHT22;13733;51.178;4.450;2023-06-19T10:21:20;26.10;99.90
25937;DHT22;13733;51.178;4.450;2023-06-19T10:23:56;26.30;99.90
25937;DHT22;13733;51.178;4.450;2023-06-19T10:26:32;26.30;98.90
25937;DHT22;13733;51.178;4.450;2023-06-19T10:28:59;26.20;98.50
25937;DHT22;13733;51.178;4.450;2023-06-19T10:31:25;26.10;98.60
25937;DHT22;13733;51.178;4.450;2023-06-19T10:33:50;26.10;98.70
25937;DHT22;13733;51.178;4.450;2023-06-19T10:36:21;26.10;99.10
25937;DHT22;13733;51.178;4.450;2023-06-19T10:38:48;26.10;99.40
25937;DHT22;13733;51.178;4.450;2023-06-19T10:41:23;26.20;98.20
25937;DHT22;13733;51.178;4.450;2023-06-19T10:44:05;26.20;97.80
25937;DHT22;13733;51.178;4.450;2023-06-19T10:46:34;26.40;98.00
25937;DHT22;13733;51.178;4.450;2023-06-19T10:49:04;26.90;98.00
25937;DHT22;13733;51.178;4.450;2023-06-19T10:51:34;27.30;96.90
25937;DHT22;13733;51.178;4.450;2023-06-19T10:54:00;27.20;96.70
25937;DHT22;13733;51.178;4.450;2023-06-19T10:56:26;26.60;97.50
25937;DHT22;13733;51.178;4.450;2023-06-19T10:59:06;26.20;98.70
25937;DHT22;13733;51.178;4.450;2023-06-19T11:01:42;26.40;98.50
25937;DHT22;13733;51.178;4.450;2023-06-19T11:04:09;26.40;99.00
25937;DHT22;13733;51.178;4.450;2023-06-19T11:06:37;26.60;98.80
25937;DHT22;13733;51.178;4.450;2023-06-19T11:09:04;27.00;99.20
25937;DHT22;13733;51.178;4.450;2023-06-19T11:11:38;28.10;97.40
25937;DHT22;13733;51.178;4.450;2023-06-19T11:14:05;29.10;92.70
25937;DHT22;13733;51.178;4.450;2023-06-19T11:16:32;29.60;91.60
25937;DHT22;13733;51.178;4.450;2023-06-19T11:18:58;30.20;89.30
25937;DHT22;13733;51.178;4.450;2023-06-19T11:21:34;30.10;87.00
25937;DHT22;13733;51.178;4.450;2023-06-19T11:24:03;30.40;84.90
25937;DHT22;13733;51.178;4.450;2023-06-19T11:26:28;30.40;81.70
25937;DHT22;13733;51.178;4.450;2023-06-19T11:28:54;30.50;82.10
25937;DHT22;13733;51.178;4.450;2023-06-19T11:31:27;30.30;83.80
25937;DHT22;13733;51.178;4.450;2023-06-19T11:33:59;30.80;82.30
25937;DHT22;13733;51.178;4.450;2023-06-19T11:36:27;30.20;81.00
25937;DHT22;13733;51.178;4.450;2023-06-19T11:38:53;30.60;79.40
25937;DHT22;13733;51.178;4.450;2023-06-19T11:41:28;30.80;75.10
25937;DHT22;13733;51.178;4.450;2023-06-19T11:44:05;30.70;74.60
25937;DHT22;13733;51.178;4.450;2023-06-19T11:46:32;31.10;72.70
25937;DHT22;13733;51.178;4.450;2023-06-19T11:49:16;31.60;71.10
25937;DHT22;13733;51.178;4.450;2023-06-19T11:51:46;33.00;67.50
25937;DHT22;13733;51.178;4.450;2023-06-19T11:54:14;32.50;65.60
25937;DHT22;13733;51.178;4.450;2023-06-19T11:56:46;33.40;59.30
25937;DHT22;13733;51.178;4.450;2023-06-19T11:59:13;33.60;55.90
25937;DHT22;13733;51.178;4.450;2023-06-19T12:01:40;34.30;54.60
25937;DHT22;13733;51.178;4.450;2023-06-19T12:04:06;34.60;53.70
25937;DHT22;13733;51.178;4.450;2023-06-19T12:06:31;34.80;55.00
25937;DHT22;13733;51.178;4.450;2023-06-19T12:08:58;34.70;52.30
25937;DHT22;13733;51.178;4.450;2023-06-19T12:11:24;33.80;52.50
25937;DHT22;13733;51.178;4.450;2023-06-19T12:13:50;34.70;50.90
25937;DHT22;13733;51.178;4.450;2023-06-19T12:16:19;34.50;50.40
25937;DHT22;13733;51.178;4.450;2023-06-19T12:18:45;35.60;49.70
25937;DHT22;13733;51.178;4.450;2023-06-19T12:21:10;35.10;47.60
25937;DHT22;13733;51.178;4.450;2023-06-19T12:23:36;35.40;49.00
25937;DHT22;13733;51.178;4.450;2023-06-19T12:26:02;35.10;48.80
25937;DHT22;13733;51.178;4.450;2023-06-19T12:28:28;35.60;48.00
25937;DHT22;13733;51.178;4.450;2023-06-19T12:30:54;36.00;44.70
25937;DHT22;13733;51.178;4.450;2023-06-19T12:33:21;36.80;43.80
25937;DHT22;13733;51.178;4.450;2023-06-19T12:35:47;37.50;42.20
25937;DHT22;13733;51.178;4.450;2023-06-19T12:38:13;37.20;40.90
25937;DHT22;13733;51.178;4.450;2023-06-19T12:40:40;36.40;42.10
25937;DHT22;13733;51.178;4.450;2023-06-19T12:43:06;36.80;42.00
25937;DHT22;13733;51.178;4.450;2023-06-19T12:45:32;37.80;40.60
25937;DHT22;13733;51.178;4.450;2023-06-19T12:47:58;38.00;37.70
25937;DHT22;13733;51.178;4.450;2023-06-19T12:50:25;37.00;38.60
25937;DHT22;13733;51.178;4.450;2023-06-19T12:52:50;37.00;38.70
25937;DHT22;13733;51.178;4.450;2023-06-19T12:55:16;37.40;38.40
25937;DHT22;13733;51.178;4.450;2023-06-19T12:57:42;36.20;40.20
25937;DHT22;13733;51.178;4.450;2023-06-19T13:00:13;37.10;39.40
25937;DHT22;13733;51.178;4.450;2023-06-19T13:02:39;36.90;39.00
25937;DHT22;13733;51.178;4.450;2023-06-19T13:05:11;37.30;38.70
25937;DHT22;13733;51.178;4.450;2023-06-19T13:07:37;37.90;37.10
25937;DHT22;13733;51.178;4.450;2023-06-19T13:10:03;38.20;36.90
25937;DHT22;13733;51.178;4.450;2023-06-19T13:12:35;38.40;35.10
25937;DHT22;13733;51.178;4.450;2023-06-19T13:15:01;38.00;34.70
25937;DHT22;13733;51.178;4.450;2023-06-19T13:17:27;38.10;34.70
25937;DHT22;13733;51.178;4.450;2023-06-19T13:19:53;38.00;35.10
25937;DHT22;13733;51.178;4.450;2023-06-19T13:22:19;37.80;35.50
25937;DHT22;13733;51.178;4.450;2023-06-19T13:24:44;37.60;36.00
25937;DHT22;13733;51.178;4.450;2023-06-19T13:27:10;38.40;34.70
25937;DHT22;13733;51.178;4.450;2023-06-19T13:29:36;38.40;34.20
25937;DHT22;13733;51.178;4.450;2023-06-19T13:32:02;39.00;34.30
25937;DHT22;13733;51.178;4.450;2023-06-19T13:34:28;39.20;34.40
25937;DHT22;13733;51.178;4.450;2023-06-19T13:36:53;39.70;34.10
25937;DHT22;13733;51.178;4.450;2023-06-19T13:39:19;40.20;32.00
25937;DHT22;13733;51.178;4.450;2023-06-19T13:41:46;40.10;32.80
25937;DHT22;13733;51.178;4.450;2023-06-19T13:44:12;41.10;31.40
25937;DHT22;13733;51.178;4.450;2023-06-19T13:46:39;41.10;30.00
25937;DHT22;13733;51.178;4.450;2023-06-19T13:49:05;41.50;29.80
25937;DHT22;13733;51.178;4.450;2023-06-19T13:51:31;41.50;30.00
25937;DHT22;13733;51.178;4.450;2023-06-19T13:53:58;40.50;30.10
25937;DHT22;13733;51.178;4.450;2023-06-19T13:56:24;40.80;29.60
25937;DHT22;13733;51.178;4.450;2023-06-19T13:58:50;40.50;29.50
25937;DHT22;13733;51.178;4.450;2023-06-19T14:01:15;40.40;29.50
25937;DHT22;13733;51.178;4.450;2023-06-19T14:03:41;39.40;30.30
25937;DHT22;13733;51.178;4.450;2023-06-19T14:06:07;38.60;31.70
25937;DHT22;13733;51.178;4.450;2023-06-19T14:08:33;38.90;31.70
25937;DHT22;13733;51.178;4.450;2023-06-19T14:10:59;39.00;31.80
25937;DHT22;13733;51.178;4.450;2023-06-19T14:13:25;39.60;31.20
25937;DHT22;13733;51.178;4.450;2023-06-19T14:15:53;39.60;30.80
25937;DHT22;13733;51.178;4.450;2023-06-19T14:18:19;39.40;31.00
25937;DHT22;13733;51.178;4.450;2023-06-19T14:20:45;39.40;30.50
25937;DHT22;13733;51.178;4.450;2023-06-19T14:23:10;40.60;28.80
25937;DHT22;13733;51.178;4.450;2023-06-19T14:25:36;41.40;28.00
25937;DHT22;13733;51.178;4.450;2023-06-19T14:28:02;42.00;26.70
25937;DHT22;13733;51.178;4.450;2023-06-19T14:30:27;42.40;27.00
25937;DHT22;13733;51.178;4.450;2023-06-19T14:32:53;42.30;26.60
25937;DHT22;13733;51.178;4.450;2023-06-19T14:35:19;42.40;27.10
25937;DHT22;13733;51.178;4.450;2023-06-19T14:37:45;42.40;26.50
25937;DHT22;13733;51.178;4.450;2023-06-19T14:40:11;42.70;26.00
25937;DHT22;13733;51.178;4.450;2023-06-19T14:42:37;42.70;26.00
25937;DHT22;13733;51.178;4.450;2023-06-19T14:45:04;43.20;26.10
25937;DHT22;13733;51.178;4.450;2023-06-19T14:47:29;41.80;26.40
25937;DHT22;13733;51.178;4.450;2023-06-19T14:49:55;42.30;26.60
25937;DHT22;13733;51.178;4.450;2023-06-19T14:52:21;42.80;25.90
25937;DHT22;13733;51.178;4.450;2023-06-19T14:54:47;41.90;26.20
25937;DHT22;13733;51.178;4.450;2023-06-19T14:57:13;40.60;27.20
25937;DHT22;13733;51.178;4.450;2023-06-19T14:59:39;40.40;27.70
25937;DHT22;13733;51.178;4.450;2023-06-19T15:02:05;39.70;28.00
25937;DHT22;13733;51.178;4.450;2023-06-19T15:04:33;39.00;28.60
25937;DHT22;13733;51.178;4.450;2023-06-19T15:06:59;39.70;28.50
25937;DHT22;13733;51.178;4.450;2023-06-19T15:09:25;39.30;28.70
25937;DHT22;13733;51.178;4.450;2023-06-19T15:11:53;39.70;28.30
25937;DHT22;13733;51.178;4.450;2023-06-19T15:14:19;40.00;28.00
25937;DHT22;13733;51.178;4.450;2023-06-19T15:16:45;40.40;28.10
25937;DHT22;13733;51.178;4.450;2023-06-19T15:19:11;40.50;27.40
25937;DHT22;13733;51.178;4.450;2023-06-19T15:21:37;39.80;27.60
25937;DHT22;13733;51.178;4.450;2023-06-19T15:24:03;40.00;28.10
25937;DHT22;13733;51.178;4.450;2023-06-19T15:26:28;40.30;27.30
25937;DHT22;13733;51.178;4.450;2023-06-19T15:28:54;39.60;27.40
25937;DHT22;13733;51.178;4.450;2023-06-19T15:31:23;39.30;28.00
25937;DHT22;13733;51.178;4.450;2023-06-19T15:33:49;39.80;27.00